West Fort Ann, New York
Current Conditions -  °F | °C
As of 3:53 AM on Friday 21 Nov 2014 (Local Time) from KGFL Reporting Station
Clear Clear  
Wind Chill: 13°   Ceiling: Unl
Heat Index: 20°   Visibility: 10mi
Dew Point: 15°   Wind: 5mph
Humidity: 81%   Direction: 180°S
Pressure: 29.98"   Gusts: NA
Location:  43.4639°N, 73.5204°W
Report Text: KGFL 210853Z AUTO 18004KT 10SM CLR M07/M09 A2998 RMK AO2 SLP161 60000 T10671094 53012
Loading
Personal Weather Stations






























Interactive Weather Map New forecast layout! Learn more

10-Day Weather Forecast

Advertisements
Track Severe Weather on mobile